Reichenau, Austria
Current Conditions -  °F | °C
As of 3:20 AM on Wednesday 26 Nov 2014 (Local Time) from LOWW Reporting Station
Broken Clouds Broken Clouds  
Wind Chill: 31°   Ceiling: 1400
Heat Index: 37°   Visibility: 4mi
Dew Point: 36°   Wind: 8mph
Humidity: 93%   Direction: 140°SE
Pressure: 30.27"   Gusts: NA
Location:  47.7°N, 15.83°E
Report Text: LOWW 260120Z 14007KT 7000 FEW010 BKN014 03/02 Q1025 TEMPO FEW010 SCT014 BKN018
Loading
Personal Weather Stations






























Interactive Weather Map New forecast layout! Learn more

10-Day Weather Forecast

Advertisements
Track Severe Weather on mobile